La Guardia Airport New York US
ICAO: KLGA
IATA: LGA
Category: Large
Scheduled Services: Yes

Elevation: 21 ft
TransAlt. 18000 ft.

Airport Communications:
NEW YORK APP:118
NEW YORK APP:132.7
ATIS:125.95
CLNC DEL:121.875
NEW YORK DEP:120.4
GND:121.7
TWR:118.7
UNICOM:122.95

KLGA Zoom In..

If Map Doesn't Load, Click Here

Runways:

(A) RW 04 length 7001 ft width 150 ft
ILS 110.50 / hdg 44

(B) RW 13 length 7003 ft width 150 ft
ILS 108.50 / hdg 134

(C) RW 22 length 7001 ft width 150 ft
ILS 110.50 / hdg 224

(D) RW 31 length 7003 ft width 150 ft
LOC 108.50 / hdg 314

Location; KLGA
Day. 24 / Time. 04.51 Zulu
* Altimeter: 30.30
* Temperature: 18° c. 64.4°f.
* Wind from: 030° Speed 07 kn.
Dewpoint: 13° c.
Visibility: 10 Statute Miles.
Clouds: Few 2500 ft.
Clouds: Scattered 5000 ft.
Clouds: Broken 25000 ft.

KLGA 240451Z 03007KT 10SM FEW025 SCT050 BKN250 18/13 A3030 RMK AO2 SLP260 T01830133 402000167 $


Wind From 030°
Speed 07 kn.

 
 
jpsmedia.com for Web Design worldairports.se 2018   terms of use